Terminal Aerodrome Forecast
Issued by NWS Sterling, VA

Home | Current Version | Previous Version | Text Only | Print | Product List | Glossary On
Versions: 1 2 3 4 5 6 7 8 9 10 11 12 13 14 15 16 17 18 19 20 21 22
000
FTUS41 KLWX 091139
TAFDCA
TAF
KDCA 091139Z 0912/1012 07007KT 4SM -RASN OVC008
     FM091400 05006KT 2SM -SN OVC006
     FM091700 34007KT 4SM -SHRASN OVC015
     FM100200 29009KT P6SM OVC040=

USA.gov is the U.S. government's official web portal to all federal, state and local government web resources and services.